createdAt,value
2018-06-28T00:00:42.990Z,11.80
2018-06-28T00:03:11.455Z,11.90
2018-06-28T00:05:40.547Z,11.80
2018-06-28T00:08:09.058Z,11.80
2018-06-28T00:10:37.536Z,11.80
2018-06-28T00:13:06.686Z,11.90
2018-06-28T00:15:35.146Z,11.80
2018-06-28T00:18:03.645Z,11.80
2018-06-28T00:20:32.164Z,11.80
2018-06-28T00:23:01.156Z,11.70
2018-06-28T00:25:29.608Z,11.70
2018-06-28T00:27:58.085Z,11.70
2018-06-28T00:30:26.562Z,11.70
2018-06-28T00:32:55.193Z,11.80
2018-06-28T00:35:23.894Z,11.70
2018-06-28T00:37:52.423Z,11.70
2018-06-28T00:40:20.929Z,11.70
2018-06-28T00:42:49.401Z,11.70
2018-06-28T00:45:17.954Z,11.70
2018-06-28T00:47:46.442Z,11.70
2018-06-28T00:50:14.970Z,11.60
2018-06-28T00:52:43.478Z,11.60
2018-06-28T00:55:12.009Z,11.50
2018-06-28T00:57:40.490Z,11.40
2018-06-28T01:00:08.962Z,11.40
2018-06-28T01:02:37.450Z,11.40
2018-06-28T01:05:06.285Z,11.40
2018-06-28T01:07:34.844Z,11.40
2018-06-28T01:10:03.363Z,11.30
2018-06-28T01:12:31.839Z,11.30
2018-06-28T01:15:00.342Z,11.20
2018-06-28T01:17:28.827Z,11.20
2018-06-28T01:19:57.381Z,11.20
2018-06-28T01:22:25.872Z,11.30
2018-06-28T01:24:54.368Z,11.30
2018-06-28T01:27:22.957Z,11.30
2018-06-28T01:29:51.951Z,11.30
2018-06-28T01:35:11.762Z,11.30
2018-06-28T01:37:40.222Z,11.30
2018-06-28T01:40:08.648Z,11.40
2018-06-28T01:42:48.324Z,11.40
2018-06-28T01:45:16.794Z,11.40
2018-06-28T01:47:45.208Z,11.40
2018-06-28T01:50:13.705Z,11.30
2018-06-28T01:52:42.118Z,11.40
2018-06-28T01:55:10.571Z,11.40
2018-06-28T01:57:39.297Z,11.30
2018-06-28T02:00:07.881Z,11.30
2018-06-28T02:02:36.495Z,11.40
2018-06-28T02:05:05.376Z,11.30
2018-06-28T02:07:33.833Z,11.30
2018-06-28T02:10:02.428Z,11.40
2018-06-28T02:12:30.843Z,11.40
2018-06-28T02:14:59.293Z,11.40
2018-06-28T02:17:27.726Z,11.40
2018-06-28T02:19:56.150Z,11.40
2018-06-28T02:24:59.290Z,11.40
2018-06-28T02:27:27.717Z,11.40
2018-06-28T02:29:56.136Z,11.40
2018-06-28T02:32:24.566Z,11.40
2018-06-28T02:34:52.995Z,11.30
2018-06-28T02:37:21.462Z,11.40
2018-06-28T02:40:00.133Z,11.50
2018-06-28T02:42:28.581Z,11.60
2018-06-28T02:44:57.030Z,11.60
2018-06-28T02:47:25.485Z,11.60
2018-06-28T02:49:53.981Z,11.50
2018-06-28T02:52:22.427Z,11.50
2018-06-28T02:54:50.858Z,11.50
2018-06-28T02:57:19.837Z,11.50
2018-06-28T02:59:48.317Z,11.60
2018-06-28T03:02:16.756Z,11.60
2018-06-28T03:04:45.213Z,11.50
2018-06-28T03:07:13.653Z,11.50
2018-06-28T03:09:42.177Z,11.50
2018-06-28T03:12:10.657Z,11.50
2018-06-28T03:14:39.077Z,11.50
2018-06-28T03:17:07.997Z,11.50
2018-06-28T03:19:36.471Z,11.50
2018-06-28T03:22:05.003Z,11.50
2018-06-28T03:24:33.483Z,11.50
2018-06-28T03:27:01.994Z,11.50
2018-06-28T03:29:30.474Z,11.60
2018-06-28T03:31:58.921Z,11.60
2018-06-28T03:34:27.402Z,11.60
2018-06-28T03:36:56.113Z,11.60
2018-06-28T03:39:24.614Z,11.60
2018-06-28T03:41:53.123Z,11.60
2018-06-28T03:44:21.614Z,11.60
2018-06-28T03:46:50.072Z,11.60
2018-06-28T03:49:18.517Z,11.60
2018-06-28T03:51:47.017Z,11.70
2018-06-28T03:54:16.134Z,11.90
2018-06-28T03:59:35.633Z,11.90
2018-06-28T04:02:04.208Z,11.90
2018-06-28T04:04:32.787Z,11.80
2018-06-28T04:07:01.286Z,11.80
2018-06-28T04:09:33.879Z,11.90
2018-06-28T04:12:02.390Z,11.90
2018-06-28T04:14:30.891Z,11.90
2018-06-28T04:16:59.491Z,11.90
2018-06-28T04:19:28.084Z,11.90
2018-06-28T04:21:56.658Z,11.90
2018-06-28T04:24:25.238Z,11.90
2018-06-28T04:26:53.884Z,11.90
2018-06-28T04:29:22.667Z,11.90
2018-06-28T04:31:51.431Z,12.00
2018-06-28T04:38:32.535Z,12.10
2018-06-28T04:41:02.774Z,12.00
2018-06-28T04:43:31.448Z,12.00
2018-06-28T04:45:59.965Z,12.10
2018-06-28T04:48:28.591Z,12.10
2018-06-28T04:50:57.107Z,12.20
2018-06-28T04:53:25.659Z,12.30
2018-06-28T04:58:46.884Z,12.40
2018-06-28T05:01:15.461Z,12.50
2018-06-28T05:03:43.989Z,12.50
2018-06-28T05:06:12.556Z,12.40
2018-06-28T05:08:41.062Z,12.50
2018-06-28T05:11:10.176Z,12.50
2018-06-28T05:13:39.042Z,12.60
2018-06-28T05:16:07.518Z,12.50
2018-06-28T05:18:36.073Z,12.60
2018-06-28T05:21:04.603Z,12.60
2018-06-28T05:23:34.181Z,12.60
2018-06-28T05:26:02.653Z,12.60
2018-06-28T05:28:31.221Z,12.70
2018-06-28T05:31:00.013Z,12.70
2018-06-28T05:33:29.443Z,12.80
2018-06-28T05:35:58.405Z,12.90
2018-06-28T05:40:55.109Z,13.10
2018-06-28T05:43:23.597Z,13.10
2018-06-28T05:45:52.093Z,13.10
2018-06-28T05:48:20.623Z,13.10
2018-06-28T05:50:49.148Z,13.10
2018-06-28T05:53:17.653Z,13.10
2018-06-28T05:55:46.106Z,13.00
2018-06-28T05:58:14.822Z,13.00
2018-06-28T06:00:43.244Z,13.00
2018-06-28T06:03:11.703Z,13.20
2018-06-28T06:05:40.187Z,13.20
2018-06-28T06:08:08.602Z,13.20
2018-06-28T06:10:37.074Z,13.20
2018-06-28T06:13:05.583Z,13.20
2018-06-28T06:15:34.025Z,13.20
2018-06-28T06:18:02.501Z,13.10
2018-06-28T06:20:30.972Z,13.20
2018-06-28T06:22:59.471Z,13.20
2018-06-28T06:25:27.915Z,13.20
2018-06-28T06:27:56.385Z,13.10
2018-06-28T06:30:24.798Z,13.20
2018-06-28T06:32:53.205Z,13.10
2018-06-28T06:35:21.671Z,13.20
2018-06-28T06:37:50.133Z,13.20
2018-06-28T06:40:18.667Z,13.20
2018-06-28T06:42:47.115Z,13.20
2018-06-28T06:45:15.545Z,13.20
2018-06-28T06:47:44.245Z,13.20
2018-06-28T06:50:12.770Z,13.30
2018-06-28T06:52:41.304Z,13.30
2018-06-28T06:55:09.795Z,13.30
2018-06-28T06:57:38.350Z,13.30
2018-06-28T07:00:06.846Z,13.30
2018-06-28T07:02:35.355Z,13.30
2018-06-28T07:05:04.064Z,13.30
2018-06-28T07:07:32.609Z,13.30
2018-06-28T07:10:01.106Z,13.30
2018-06-28T07:12:29.713Z,13.30
2018-06-28T07:14:58.295Z,13.40
2018-06-28T07:17:26.825Z,13.40
2018-06-28T07:19:55.313Z,13.40
2018-06-28T07:22:23.962Z,13.30
2018-06-28T07:24:52.586Z,13.30
2018-06-28T07:27:21.229Z,13.30
2018-06-28T07:29:49.858Z,13.20
2018-06-28T07:32:18.503Z,13.30
2018-06-28T07:34:47.101Z,13.20
2018-06-28T07:37:15.760Z,13.30
2018-06-28T07:39:44.638Z,13.30
2018-06-28T07:42:13.385Z,13.20
2018-06-28T07:44:42.167Z,13.10
2018-06-28T07:47:11.029Z,13.10
2018-06-28T07:49:39.767Z,13.00
2018-06-28T07:54:37.003Z,12.80
2018-06-28T07:57:17.383Z,12.70
2018-06-28T07:59:46.396Z,12.80
2018-06-28T08:02:16.121Z,12.80
2018-06-28T08:04:51.672Z,12.80
2018-06-28T08:07:20.954Z,12.80
2018-06-28T08:12:42.382Z,12.80
2018-06-28T08:15:13.988Z,12.70
2018-06-28T08:18:05.480Z,12.70
2018-06-28T08:20:34.505Z,12.90
2018-06-28T08:23:03.315Z,12.90
2018-06-28T08:25:35.486Z,13.00
2018-06-28T08:28:14.974Z,12.90
2018-06-28T08:30:57.979Z,13.00
2018-06-28T08:33:39.204Z,13.10
2018-06-28T08:36:08.342Z,13.00
2018-06-28T08:38:42.481Z,13.10
2018-06-28T08:41:11.401Z,13.00
2018-06-28T08:43:39.932Z,13.10
2018-06-28T08:48:36.867Z,13.10
2018-06-28T08:51:05.551Z,13.10
2018-06-28T08:53:34.235Z,13.10
2018-06-28T08:56:03.178Z,13.20
2018-06-28T08:58:31.972Z,13.20
2018-06-28T09:01:03.836Z,13.30
2018-06-28T09:03:32.406Z,13.40
2018-06-28T09:06:01.717Z,13.50
2018-06-28T09:08:30.305Z,13.70
2018-06-28T09:10:59.274Z,13.90
2018-06-28T09:13:27.874Z,14.00
2018-06-28T09:15:56.450Z,14.10
2018-06-28T09:18:25.026Z,14.30
2018-06-28T09:20:53.613Z,14.40
2018-06-28T09:23:22.330Z,14.50
2018-06-28T09:25:50.935Z,14.60
2018-06-28T09:28:19.519Z,14.60
2018-06-28T09:30:48.167Z,14.50
2018-06-28T09:33:16.854Z,14.40
2018-06-28T09:35:45.486Z,14.40
2018-06-28T09:38:14.361Z,14.60
2018-06-28T09:40:43.133Z,14.50
2018-06-28T09:43:11.743Z,14.60
2018-06-28T09:45:40.285Z,14.70
2018-06-28T09:48:08.956Z,14.80
2018-06-28T09:50:37.539Z,14.80
2018-06-28T09:53:06.212Z,14.90
2018-06-28T09:55:34.787Z,14.90
2018-06-28T09:58:03.524Z,14.90
2018-06-28T10:00:37.611Z,14.90
2018-06-28T10:08:09.922Z,15.00
2018-06-28T10:10:38.871Z,15.10
2018-06-28T10:13:07.513Z,15.20
2018-06-28T10:15:36.251Z,15.20
2018-06-28T10:18:04.858Z,15.10
2018-06-28T10:20:35.213Z,15.00
2018-06-28T10:23:03.837Z,15.00
2018-06-28T10:25:32.771Z,14.80
2018-06-28T10:28:01.325Z,15.00
2018-06-28T10:30:29.982Z,14.90
2018-06-28T10:32:58.656Z,15.10
2018-06-28T10:35:27.272Z,15.00
2018-06-28T10:37:58.956Z,15.10
2018-06-28T10:40:27.547Z,15.00
2018-06-28T10:42:56.231Z,15.00
2018-06-28T10:45:24.839Z,15.00
2018-06-28T10:47:53.647Z,15.00
2018-06-28T10:50:22.305Z,14.90
2018-06-28T10:52:50.949Z,14.90
2018-06-28T10:55:19.613Z,14.70
2018-06-28T10:57:57.489Z,14.60
2018-06-28T11:00:26.113Z,14.50
2018-06-28T11:02:54.802Z,14.50
2018-06-28T11:07:51.585Z,14.80
2018-06-28T11:10:20.326Z,14.80
2018-06-28T11:12:48.993Z,14.80
2018-06-28T11:15:17.467Z,14.80
2018-06-28T11:17:46.015Z,14.70
2018-06-28T11:20:15.289Z,14.70
2018-06-28T11:22:47.036Z,15.00
2018-06-28T11:25:15.575Z,15.10
2018-06-28T11:27:44.256Z,15.20
2018-06-28T11:30:12.803Z,15.10
2018-06-28T11:32:42.856Z,15.10
2018-06-28T11:35:11.604Z,14.90
2018-06-28T11:37:40.087Z,15.00
2018-06-28T11:40:09.667Z,15.20
2018-06-28T11:42:38.156Z,15.20
2018-06-28T11:45:06.978Z,15.00
2018-06-28T11:47:36.367Z,15.10
2018-06-28T11:50:04.928Z,15.10
2018-06-28T11:52:33.393Z,15.10
2018-06-28T11:55:01.864Z,15.30
2018-06-28T11:57:30.311Z,15.40
2018-06-28T11:59:58.769Z,15.50
2018-06-28T12:02:27.321Z,15.30
2018-06-28T12:04:55.828Z,15.50
2018-06-28T12:07:24.322Z,15.60
2018-06-28T12:09:52.837Z,15.80
2018-06-28T12:12:22.207Z,15.80
2018-06-28T12:14:50.822Z,15.70
2018-06-28T12:17:19.331Z,15.90
2018-06-28T12:19:47.840Z,16.00
2018-06-28T12:22:16.579Z,16.00
2018-06-28T12:24:45.820Z,16.10
2018-06-28T12:27:14.340Z,15.90
2018-06-28T12:29:42.897Z,15.90
2018-06-28T12:32:11.588Z,15.90
2018-06-28T12:34:40.355Z,15.70
2018-06-28T12:37:09.477Z,15.70
2018-06-28T12:39:38.173Z,15.70
2018-06-28T12:42:07.016Z,15.80
2018-06-28T12:47:43.721Z,15.80
2018-06-28T12:53:11.386Z,16.00
2018-06-28T12:56:48.902Z,16.00
2018-06-28T12:59:20.137Z,16.10
2018-06-28T13:01:49.140Z,16.10
2018-06-28T13:04:17.872Z,16.10
2018-06-28T13:06:46.462Z,15.90
2018-06-28T13:09:33.701Z,16.00
2018-06-28T13:12:02.363Z,15.90
2018-06-28T13:14:30.898Z,16.10
2018-06-28T13:16:59.728Z,16.10
2018-06-28T13:19:28.222Z,16.10
2018-06-28T13:21:56.799Z,16.10
2018-06-28T13:24:25.348Z,16.20
2018-06-28T13:29:22.208Z,16.30
2018-06-28T13:31:50.944Z,16.10
2018-06-28T13:34:19.465Z,15.90
2018-06-28T13:36:48.123Z,16.00
2018-06-28T13:39:16.825Z,16.10
2018-06-28T13:41:49.679Z,16.30
2018-06-28T13:44:18.271Z,16.30
2018-06-28T13:46:46.934Z,16.30
2018-06-28T13:49:15.635Z,16.20
2018-06-28T13:51:45.628Z,16.10
2018-06-28T13:54:14.534Z,16.10
2018-06-28T13:56:44.557Z,16.00
2018-06-28T13:59:15.211Z,16.00
2018-06-28T14:01:43.927Z,15.90
2018-06-28T14:04:12.624Z,15.90
2018-06-28T14:06:43.249Z,16.00
2018-06-28T14:09:14.374Z,16.00
2018-06-28T14:11:43.726Z,16.00
2018-06-28T14:14:12.241Z,16.00
2018-06-28T14:16:45.721Z,16.10
2018-06-28T14:19:14.294Z,16.10
2018-06-28T14:21:44.372Z,15.90
2018-06-28T14:24:15.966Z,16.00
2018-06-28T14:26:45.914Z,16.10
2018-06-28T14:29:24.483Z,16.00
2018-06-28T14:31:53.814Z,15.90
2018-06-28T14:34:36.080Z,15.80
2018-06-28T14:37:07.465Z,15.70
2018-06-28T14:39:44.222Z,15.70
2018-06-28T14:42:16.200Z,15.50
2018-06-28T14:44:50.464Z,15.50
2018-06-28T14:50:19.976Z,15.70
2018-06-28T14:52:54.306Z,15.70
2018-06-28T14:55:23.142Z,15.60
2018-06-28T14:57:54.825Z,15.60
2018-06-28T15:00:23.622Z,15.50
2018-06-28T15:02:52.211Z,15.50
2018-06-28T15:05:20.857Z,15.40
2018-06-28T15:07:49.555Z,15.40
2018-06-28T15:10:18.228Z,15.20
2018-06-28T15:12:47.009Z,15.20
2018-06-28T15:15:15.797Z,15.20
2018-06-28T15:17:44.449Z,15.30
2018-06-28T15:20:13.398Z,15.30
2018-06-28T15:22:42.103Z,15.30
2018-06-28T15:25:10.984Z,15.40
2018-06-28T15:27:40.139Z,15.30
2018-06-28T15:30:09.876Z,15.30
2018-06-28T15:32:38.518Z,15.30
2018-06-28T15:35:07.453Z,15.40
2018-06-28T15:37:37.166Z,15.40
2018-06-28T15:40:06.150Z,15.30
2018-06-28T15:42:34.964Z,15.40
2018-06-28T15:45:03.986Z,15.40
2018-06-28T15:47:32.866Z,15.40
2018-06-28T15:50:01.683Z,15.40
2018-06-28T15:52:30.454Z,15.40
2018-06-28T15:54:59.119Z,15.30
2018-06-28T15:57:27.738Z,15.30
2018-06-28T15:59:56.335Z,15.30
2018-06-28T16:02:24.894Z,15.30
2018-06-28T16:04:53.513Z,15.40
2018-06-28T16:07:22.286Z,15.40
2018-06-28T16:09:50.875Z,15.30
2018-06-28T16:12:19.633Z,15.30
2018-06-28T16:14:48.351Z,15.30
2018-06-28T16:17:16.982Z,15.20
2018-06-28T16:19:45.479Z,15.20
2018-06-28T16:22:13.982Z,15.20
2018-06-28T16:24:42.507Z,15.00
2018-06-28T16:27:11.420Z,15.10
2018-06-28T16:29:40.225Z,15.10
2018-06-28T16:32:08.767Z,15.20
2018-06-28T16:34:37.576Z,15.20
2018-06-28T16:37:06.177Z,15.20
2018-06-28T16:39:34.809Z,15.10
2018-06-28T16:42:03.408Z,15.20
2018-06-28T16:44:32.023Z,15.20
2018-06-28T16:47:00.545Z,15.20
2018-06-28T16:49:29.073Z,15.10
2018-06-28T16:51:57.805Z,15.10
2018-06-28T16:54:26.378Z,15.10
2018-06-28T16:56:55.090Z,15.10
2018-06-28T16:59:23.725Z,15.20
2018-06-28T17:01:52.293Z,15.20
2018-06-28T17:04:21.060Z,15.20
2018-06-28T17:06:49.624Z,15.20
2018-06-28T17:09:18.285Z,15.20
2018-06-28T17:11:46.904Z,15.20
2018-06-28T17:14:15.676Z,15.10
2018-06-28T17:16:44.436Z,15.10
2018-06-28T17:19:13.466Z,15.10
2018-06-28T17:21:42.355Z,15.10
2018-06-28T17:24:14.933Z,15.10
2018-06-28T17:26:43.788Z,15.10
2018-06-28T17:29:12.580Z,15.20
2018-06-28T17:34:10.661Z,15.20
2018-06-28T17:36:39.285Z,15.20
2018-06-28T17:39:10.963Z,15.20
2018-06-28T17:41:39.648Z,15.20
2018-06-28T17:44:10.553Z,15.20
2018-06-28T17:46:39.147Z,15.20
2018-06-28T17:49:07.653Z,15.20
2018-06-28T17:51:36.354Z,15.20
2018-06-28T17:54:04.953Z,15.10
2018-06-28T17:56:33.614Z,15.20
2018-06-28T17:59:02.157Z,15.20
2018-06-28T18:01:30.663Z,15.20
2018-06-28T18:03:59.318Z,15.30
2018-06-28T18:06:28.028Z,15.30
2018-06-28T18:08:56.638Z,15.40
2018-06-28T18:11:25.146Z,15.30
2018-06-28T18:13:53.823Z,15.30
2018-06-28T18:16:22.558Z,15.30
2018-06-28T18:18:51.184Z,15.20
2018-06-28T18:21:19.822Z,15.20
2018-06-28T18:23:48.557Z,15.30
2018-06-28T18:26:17.193Z,15.20
2018-06-28T18:28:45.736Z,15.20
2018-06-28T18:31:14.419Z,15.30
2018-06-28T18:36:33.683Z,15.20
2018-06-28T18:39:02.231Z,15.20
2018-06-28T18:41:30.869Z,15.20
2018-06-28T18:43:59.380Z,15.20
2018-06-28T18:46:27.964Z,15.20
2018-06-28T18:48:57.351Z,15.20
2018-06-28T18:51:26.989Z,15.10
2018-06-28T18:53:56.344Z,15.10
2018-06-28T18:56:25.452Z,15.10
2018-06-28T18:58:54.022Z,15.10
2018-06-28T19:01:23.819Z,15.00
2018-06-28T19:03:52.732Z,15.10
2018-06-28T19:06:21.224Z,15.00
2018-06-28T19:08:49.823Z,15.00
2018-06-28T19:13:52.691Z,15.10
2018-06-28T19:16:26.442Z,15.10
2018-06-28T19:18:55.020Z,15.10
2018-06-28T19:21:28.831Z,15.10
2018-06-28T19:23:57.385Z,15.10
2018-06-28T19:26:25.869Z,15.10
2018-06-28T19:28:54.383Z,15.10
2018-06-28T19:31:28.201Z,15.10
2018-06-28T19:33:59.079Z,15.10
2018-06-28T19:36:27.590Z,15.10
2018-06-28T19:39:01.385Z,15.10
2018-06-28T19:41:35.276Z,15.10
2018-06-28T19:44:04.094Z,15.10
2018-06-28T19:46:32.640Z,15.10
2018-06-28T19:49:01.169Z,15.10
2018-06-28T19:51:35.062Z,15.10
2018-06-28T19:54:03.576Z,15.10
2018-06-28T19:56:32.635Z,15.10
2018-06-28T19:59:01.147Z,15.10
2018-06-28T20:01:35.012Z,15.10
2018-06-28T20:04:08.830Z,15.10
2018-06-28T20:06:37.260Z,15.10
2018-06-28T20:09:07.992Z,15.10
2018-06-28T20:11:36.449Z,15.00
2018-06-28T20:14:10.314Z,15.00
2018-06-28T20:16:44.054Z,15.10
2018-06-28T20:19:17.782Z,15.10
2018-06-28T20:24:37.736Z,15.10
2018-06-28T20:27:11.630Z,15.10
2018-06-28T20:29:45.577Z,15.10
2018-06-28T20:32:19.493Z,15.10
2018-06-28T20:34:48.322Z,15.10
2018-06-28T20:37:16.853Z,15.10
2018-06-28T20:39:45.344Z,15.10
2018-06-28T20:42:13.811Z,15.10
2018-06-28T20:44:42.311Z,15.10
2018-06-28T20:47:10.806Z,15.10
2018-06-28T20:49:39.439Z,15.10
2018-06-28T20:52:08.781Z,15.10
2018-06-28T20:54:37.254Z,15.10
2018-06-28T20:57:06.263Z,15.10
2018-06-28T20:59:34.751Z,15.10
2018-06-28T21:02:03.832Z,15.10
2018-06-28T21:04:32.409Z,15.10
2018-06-28T21:07:01.539Z,15.20
2018-06-28T21:09:30.239Z,15.20
2018-06-28T21:11:58.784Z,15.10
2018-06-28T21:14:27.251Z,15.20
2018-06-28T21:16:56.113Z,15.10
2018-06-28T21:19:24.601Z,15.20
2018-06-28T21:21:53.074Z,15.00
2018-06-28T21:27:12.578Z,14.90
2018-06-28T21:29:41.844Z,14.90
2018-06-28T21:32:10.294Z,14.80
2018-06-28T21:34:38.995Z,14.80
2018-06-28T21:39:59.161Z,14.90
2018-06-28T21:44:07.163Z,14.90
2018-06-28T21:46:35.753Z,15.00
2018-06-28T21:49:26.994Z,14.90
2018-06-28T21:51:55.602Z,14.90
2018-06-28T21:54:24.039Z,14.90
2018-06-28T21:56:52.478Z,14.90
2018-06-28T21:59:22.379Z,14.90
2018-06-28T22:01:52.445Z,14.80
2018-06-28T22:04:21.264Z,14.80
2018-06-28T22:06:50.539Z,14.70
2018-06-28T22:09:19.912Z,14.70
2018-06-28T22:11:48.634Z,14.60
2018-06-28T22:14:17.638Z,14.60
2018-06-28T22:16:46.062Z,14.60
2018-06-28T22:19:14.599Z,14.50
2018-06-28T22:21:43.073Z,14.50
2018-06-28T22:24:11.557Z,14.50
2018-06-28T22:26:40.047Z,14.50
2018-06-28T22:29:08.581Z,14.50
2018-06-28T22:31:37.025Z,14.40
2018-06-28T22:34:05.927Z,14.40
2018-06-28T22:36:34.330Z,14.50
2018-06-28T22:39:02.819Z,14.50
2018-06-28T22:41:31.301Z,14.40
2018-06-28T22:43:59.806Z,14.40
2018-06-28T22:46:28.227Z,14.40
2018-06-28T22:48:56.778Z,14.40
2018-06-28T22:51:25.199Z,14.40
2018-06-28T22:53:53.670Z,14.40
2018-06-28T22:56:22.190Z,14.40
2018-06-28T22:58:50.783Z,14.40
2018-06-28T23:01:19.246Z,14.30
2018-06-28T23:03:47.723Z,14.30
2018-06-28T23:06:16.295Z,14.30
2018-06-28T23:11:35.457Z,14.30
2018-06-28T23:14:04.190Z,14.20
2018-06-28T23:19:23.361Z,14.30
2018-06-28T23:24:19.933Z,14.40
2018-06-28T23:26:48.391Z,14.40
2018-06-28T23:29:17.062Z,14.40
2018-06-28T23:31:45.574Z,14.40
2018-06-28T23:34:18.885Z,14.40
2018-06-28T23:36:47.526Z,14.40
2018-06-28T23:39:16.015Z,14.50
2018-06-28T23:41:44.483Z,14.40
2018-06-28T23:44:13.003Z,14.40
2018-06-28T23:46:41.469Z,14.40
2018-06-28T23:49:09.930Z,14.40
2018-06-28T23:51:38.423Z,14.40
2018-06-28T23:54:06.864Z,14.50
2018-06-28T23:56:35.329Z,14.40
2018-06-28T23:59:03.767Z,14.40
